EZS97SJ EBBR-EGKK
Flight info
| Callsign | EZS97SJ |
|---|---|
| Flight time | 0h 40m |
| Altitude | 24000 |
| Route | DENUT L610 TEBRA |
| Aircraft | A320/M-SDE2E3FGHIJ1RWXYZ/LB1 |
Departure
| Time | 2026-05-07 22:00 |
|---|---|
| Airport | Brussels Airport (EBBR) |
Arrival
| Time | 2026-05-07 22:40 |
|---|---|
| Airport | London Gatwick Airport (EGKK) |
| Time | Latitude | Longitude | Altitude | Speed | Heading |
|---|---|---|---|---|---|
| 2026-05-07 21:40 | 50.90214 | 4.47883 | 121 ft | 0 kts | 155° |
| 2026-05-07 21:51 | 50.90222 | 4.47878 | 116 ft | 4 kts | 155° |
| 2026-05-07 21:52 | 50.90246 | 4.47859 | 116 ft | 4 kts | 149° |
| 2026-05-07 21:52 | 50.90268 | 4.47834 | 117 ft | 4 kts | 131° |
| 2026-05-07 21:52 | 50.90278 | 4.47803 | 117 ft | 3 kts | 71° |
| 2026-05-07 21:52 | 50.90277 | 4.47798 | 118 ft | 0 kts | 65° |
| 2026-05-07 21:55 | 50.90277 | 4.47800 | 121 ft | 2 kts | 65° |
| 2026-05-07 21:56 | 50.90282 | 4.47818 | 117 ft | 5 kts | 65° |
| 2026-05-07 21:56 | 50.90312 | 4.47921 | 117 ft | 13 kts | 65° |
| 2026-05-07 21:56 | 50.90370 | 4.48035 | 118 ft | 15 kts | 9° |
| 2026-05-07 21:56 | 50.90451 | 4.48127 | 120 ft | 17 kts | 64° |
| 2026-05-07 21:57 | 50.90501 | 4.48303 | 119 ft | 18 kts | 65° |
| 2026-05-07 21:57 | 50.90557 | 4.48493 | 119 ft | 20 kts | 65° |
| 2026-05-07 21:57 | 50.90617 | 4.48699 | 118 ft | 21 kts | 65° |
| 2026-05-07 21:57 | 50.90683 | 4.48922 | 118 ft | 23 kts | 65° |
| 2026-05-07 21:58 | 50.90750 | 4.49150 | 119 ft | 23 kts | 65° |
| 2026-05-07 21:58 | 50.90822 | 4.49389 | 121 ft | 24 kts | 65° |
| 2026-05-07 21:58 | 50.90897 | 4.49626 | 122 ft | 21 kts | 52° |
| 2026-05-07 21:58 | 50.90980 | 4.49566 | 120 ft | 19 kts | 276° |
| 2026-05-07 21:59 | 50.90981 | 4.49354 | 117 ft | 20 kts | 255° |
| 2026-05-07 21:59 | 50.90918 | 4.49127 | 119 ft | 35 kts | 245° |
| 2026-05-07 21:59 | 50.90710 | 4.48408 | 118 ft | 104 kts | 245° |
| 2026-05-07 21:59 | 50.90330 | 4.47091 | 125 ft | 156 kts | 245° |
| 2026-05-07 22:00 | 50.89862 | 4.45407 | 511 ft | 172 kts | 252° |
| 2026-05-07 22:00 | 50.89788 | 4.44162 | 978 ft | 173 kts | 282° |
| 2026-05-07 22:00 | 50.90299 | 4.42411 | 1545 ft | 184 kts | 302° |
| 2026-05-07 22:00 | 50.90986 | 4.40558 | 1876 ft | 206 kts | 300° |
| 2026-05-07 22:01 | 50.91498 | 4.38302 | 2179 ft | 231 kts | 279° |
| 2026-05-07 22:01 | 50.91775 | 4.35656 | 2623 ft | 255 kts | 279° |
| 2026-05-07 22:01 | 50.92054 | 4.32814 | 3381 ft | 265 kts | 278° |
| 2026-05-07 22:01 | 50.92362 | 4.29911 | 4301 ft | 269 kts | 284° |
| 2026-05-07 22:02 | 50.93150 | 4.27207 | 5212 ft | 273 kts | 306° |
| 2026-05-07 22:02 | 50.94328 | 4.24831 | 6161 ft | 274 kts | 308° |
| 2026-05-07 22:02 | 50.95523 | 4.22465 | 7072 ft | 276 kts | 308° |
| 2026-05-07 22:02 | 50.96725 | 4.20079 | 7923 ft | 279 kts | 308° |
| 2026-05-07 22:03 | 50.97943 | 4.17653 | 8761 ft | 282 kts | 308° |
| 2026-05-07 22:03 | 50.99172 | 4.15198 | 9602 ft | 286 kts | 307° |
| 2026-05-07 22:03 | 51.00417 | 4.12709 | 10366 ft | 291 kts | 307° |
| 2026-05-07 22:03 | 51.01723 | 4.10083 | 10648 ft | 314 kts | 307° |
| 2026-05-07 22:04 | 51.03125 | 4.07261 | 10852 ft | 337 kts | 307° |
| 2026-05-07 22:04 | 51.04629 | 4.04232 | 10986 ft | 360 kts | 307° |
| 2026-05-07 22:04 | 51.06227 | 4.01019 | 11117 ft | 381 kts | 307° |
| 2026-05-07 22:04 | 51.07883 | 3.97684 | 11387 ft | 395 kts | 307° |
| 2026-05-07 22:05 | 51.09594 | 3.94239 | 11916 ft | 399 kts | 307° |
| 2026-05-07 22:05 | 51.11323 | 3.90752 | 12502 ft | 403 kts | 307° |
| 2026-05-07 22:05 | 51.13058 | 3.87243 | 13097 ft | 406 kts | 307° |
| 2026-05-07 22:05 | 51.14815 | 3.83680 | 13687 ft | 408 kts | 307° |
| 2026-05-07 22:06 | 51.16575 | 3.80108 | 14221 ft | 411 kts | 307° |
| 2026-05-07 22:06 | 51.18343 | 3.76504 | 14718 ft | 414 kts | 307° |
| 2026-05-07 22:06 | 51.20126 | 3.72862 | 15216 ft | 417 kts | 307° |
| 2026-05-07 22:06 | 51.21877 | 3.69162 | 15694 ft | 419 kts | 302° |
| 2026-05-07 22:07 | 51.23283 | 3.65146 | 16174 ft | 420 kts | 293° |
| 2026-05-07 22:07 | 51.24265 | 3.60755 | 16658 ft | 421 kts | 283° |
| 2026-05-07 22:07 | 51.24894 | 3.56173 | 17130 ft | 423 kts | 281° |
| 2026-05-07 22:07 | 51.25500 | 3.51560 | 17601 ft | 426 kts | 281° |
| 2026-05-07 22:08 | 51.26109 | 3.46921 | 18056 ft | 428 kts | 281° |
| 2026-05-07 22:08 | 51.26724 | 3.42256 | 18485 ft | 431 kts | 281° |
| 2026-05-07 22:08 | 51.27344 | 3.37558 | 18875 ft | 433 kts | 281° |
| 2026-05-07 22:08 | 51.27963 | 3.32841 | 19270 ft | 435 kts | 281° |
| 2026-05-07 22:09 | 51.28579 | 3.28099 | 19671 ft | 436 kts | 281° |
| 2026-05-07 22:09 | 51.29189 | 3.23341 | 20042 ft | 438 kts | 281° |
| 2026-05-07 22:09 | 51.29792 | 3.18563 | 20411 ft | 440 kts | 280° |
| 2026-05-07 22:09 | 51.30396 | 3.13767 | 20777 ft | 441 kts | 280° |
| 2026-05-07 22:10 | 51.31007 | 3.08942 | 21129 ft | 443 kts | 280° |
| 2026-05-07 22:10 | 51.31618 | 3.04117 | 21474 ft | 445 kts | 280° |
| 2026-05-07 22:10 | 51.32230 | 2.99256 | 21801 ft | 446 kts | 280° |
| 2026-05-07 22:10 | 51.32833 | 2.94438 | 22114 ft | 448 kts | 280° |
| 2026-05-07 22:11 | 51.33443 | 2.89546 | 22434 ft | 450 kts | 280° |
| 2026-05-07 22:11 | 51.34056 | 2.84637 | 22734 ft | 451 kts | 280° |
| 2026-05-07 22:11 | 51.34667 | 2.79696 | 23032 ft | 453 kts | 280° |
| 2026-05-07 22:11 | 51.35283 | 2.74734 | 23337 ft | 455 kts | 280° |
| 2026-05-07 22:12 | 51.35901 | 2.69752 | 23632 ft | 457 kts | 280° |
| 2026-05-07 22:12 | 51.36515 | 2.64768 | 23882 ft | 458 kts | 280° |
| 2026-05-07 22:12 | 51.37132 | 2.59762 | 24064 ft | 459 kts | 280° |
| 2026-05-07 22:12 | 51.37746 | 2.54749 | 24104 ft | 459 kts | 280° |
| 2026-05-07 22:13 | 51.38358 | 2.49731 | 24104 ft | 459 kts | 280° |
| 2026-05-07 22:13 | 51.38969 | 2.44723 | 24104 ft | 459 kts | 280° |
| 2026-05-07 22:13 | 51.39577 | 2.39698 | 24104 ft | 459 kts | 280° |
| 2026-05-07 22:13 | 51.40180 | 2.34687 | 24104 ft | 460 kts | 279° |
| 2026-05-07 22:14 | 51.40782 | 2.29661 | 24103 ft | 460 kts | 279° |
| 2026-05-07 22:14 | 51.41384 | 2.24615 | 24103 ft | 460 kts | 279° |
| 2026-05-07 22:14 | 51.41983 | 2.19653 | 24104 ft | 460 kts | 280° |
| 2026-05-07 22:14 | 51.42606 | 2.14556 | 24104 ft | 460 kts | 280° |
| 2026-05-07 22:15 | 51.43223 | 2.09526 | 24105 ft | 460 kts | 280° |
| 2026-05-07 22:15 | 51.43830 | 2.04552 | 24107 ft | 460 kts | 280° |
| 2026-05-07 22:15 | 51.44440 | 1.99523 | 24109 ft | 461 kts | 279° |
| 2026-05-07 22:15 | 51.45045 | 1.94464 | 24110 ft | 461 kts | 279° |
| 2026-05-07 22:16 | 51.45641 | 1.89422 | 23725 ft | 459 kts | 279° |
| 2026-05-07 22:16 | 51.46229 | 1.84410 | 22657 ft | 456 kts | 279° |
| 2026-05-07 22:16 | 51.46806 | 1.79431 | 21750 ft | 452 kts | 279° |
| 2026-05-07 22:16 | 51.47372 | 1.74500 | 21084 ft | 444 kts | 279° |
| 2026-05-07 22:17 | 51.47920 | 1.69699 | 20560 ft | 433 kts | 279° |
| 2026-05-07 22:17 | 51.48353 | 1.64956 | 19890 ft | 427 kts | 272° |
| 2026-05-07 22:17 | 51.48256 | 1.60233 | 19212 ft | 421 kts | 262° |
| 2026-05-07 22:17 | 51.47609 | 1.55687 | 18540 ft | 417 kts | 251° |
| 2026-05-07 22:18 | 51.46615 | 1.51339 | 17788 ft | 414 kts | 249° |
| 2026-05-07 22:18 | 51.44644 | 1.42853 | 16092 ft | 400 kts | 247° |
| 2026-05-07 22:18 | 51.43356 | 1.38955 | 14868 ft | 393 kts | 235° |
| 2026-05-07 22:19 | 51.41632 | 1.35609 | 13732 ft | 387 kts | 223° |
| 2026-05-07 22:19 | 51.39584 | 1.32959 | 13224 ft | 371 kts | 216° |
| 2026-05-07 22:19 | 51.37506 | 1.30524 | 12964 ft | 369 kts | 216° |
| 2026-05-07 22:19 | 51.35451 | 1.28084 | 12696 ft | 363 kts | 217° |
| 2026-05-07 22:20 | 51.33458 | 1.25715 | 12437 ft | 352 kts | 217° |
| 2026-05-07 22:20 | 51.31523 | 1.23417 | 12168 ft | 341 kts | 217° |
| 2026-05-07 22:20 | 51.29650 | 1.21193 | 11906 ft | 331 kts | 217° |
| 2026-05-07 22:20 | 51.27827 | 1.19032 | 11656 ft | 322 kts | 217° |
| 2026-05-07 22:21 | 51.26046 | 1.16927 | 11411 ft | 314 kts | 217° |
| 2026-05-07 22:21 | 51.24308 | 1.14881 | 11159 ft | 307 kts | 217° |
| 2026-05-07 22:21 | 51.22604 | 1.12880 | 10904 ft | 301 kts | 217° |
| 2026-05-07 22:21 | 51.20933 | 1.10921 | 10661 ft | 295 kts | 217° |
| 2026-05-07 22:22 | 51.19299 | 1.09003 | 10415 ft | 289 kts | 217° |
| 2026-05-07 22:22 | 51.17718 | 1.07149 | 10173 ft | 283 kts | 217° |
| 2026-05-07 22:22 | 51.16148 | 1.05312 | 9988 ft | 276 kts | 217° |
| 2026-05-07 22:22 | 51.14628 | 1.03531 | 9855 ft | 268 kts | 217° |
| 2026-05-07 22:23 | 51.13108 | 1.01752 | 9719 ft | 273 kts | 217° |
| 2026-05-07 22:23 | 51.11576 | 0.99967 | 9588 ft | 273 kts | 217° |
| 2026-05-07 22:23 | 51.10039 | 0.98179 | 9454 ft | 273 kts | 216° |
| 2026-05-07 22:23 | 51.08509 | 0.96398 | 9320 ft | 272 kts | 216° |
| 2026-05-07 22:24 | 51.06983 | 0.94619 | 9188 ft | 272 kts | 217° |
| 2026-05-07 22:24 | 51.05635 | 0.92518 | 9023 ft | 271 kts | 235° |
| 2026-05-07 22:24 | 51.04748 | 0.89885 | 8882 ft | 271 kts | 245° |
| 2026-05-07 22:24 | 51.03949 | 0.87166 | 8732 ft | 271 kts | 245° |
| 2026-05-07 22:25 | 51.03147 | 0.84461 | 8605 ft | 271 kts | 245° |
| 2026-05-07 22:25 | 51.02331 | 0.81730 | 8463 ft | 275 kts | 244° |
| 2026-05-07 22:25 | 51.01519 | 0.79021 | 8324 ft | 275 kts | 244° |
| 2026-05-07 22:25 | 51.00693 | 0.76274 | 8211 ft | 275 kts | 244° |
| 2026-05-07 22:26 | 50.99868 | 0.73533 | 8099 ft | 275 kts | 244° |
| 2026-05-07 22:26 | 50.99048 | 0.70794 | 7923 ft | 274 kts | 244° |
| 2026-05-07 22:26 | 50.98229 | 0.68062 | 7740 ft | 274 kts | 244° |
| 2026-05-07 22:26 | 50.97411 | 0.65334 | 7556 ft | 273 kts | 244° |
| 2026-05-07 22:27 | 50.96591 | 0.62613 | 7368 ft | 273 kts | 244° |
| 2026-05-07 22:27 | 50.95772 | 0.59901 | 7187 ft | 272 kts | 244° |
| 2026-05-07 22:27 | 50.94952 | 0.57192 | 7018 ft | 272 kts | 244° |
| 2026-05-07 22:27 | 50.94135 | 0.54496 | 6817 ft | 271 kts | 244° |
| 2026-05-07 22:28 | 50.93320 | 0.51801 | 6649 ft | 271 kts | 244° |
| 2026-05-07 22:28 | 50.92506 | 0.49106 | 6469 ft | 271 kts | 244° |
| 2026-05-07 22:28 | 50.91812 | 0.46346 | 6290 ft | 270 kts | 256° |
| 2026-05-07 22:28 | 50.91609 | 0.43406 | 6107 ft | 269 kts | 272° |
| 2026-05-07 22:29 | 50.91930 | 0.40489 | 5923 ft | 270 kts | 287° |
| 2026-05-07 22:29 | 50.92464 | 0.37638 | 5739 ft | 270 kts | 286° |
| 2026-05-07 22:29 | 50.92992 | 0.34778 | 5557 ft | 271 kts | 286° |
| 2026-05-07 22:29 | 50.93517 | 0.31915 | 5375 ft | 271 kts | 286° |
| 2026-05-07 22:30 | 50.94041 | 0.29041 | 5194 ft | 271 kts | 286° |
| 2026-05-07 22:30 | 50.94686 | 0.26230 | 5010 ft | 271 kts | 297° |
| 2026-05-07 22:30 | 50.95737 | 0.23762 | 4833 ft | 270 kts | 309° |
| 2026-05-07 22:30 | 50.96883 | 0.21444 | 4645 ft | 270 kts | 308° |
| 2026-05-07 22:31 | 50.98051 | 0.19069 | 4464 ft | 269 kts | 308° |
| 2026-05-07 22:31 | 50.99188 | 0.16757 | 4286 ft | 269 kts | 308° |
| 2026-05-07 22:31 | 51.00337 | 0.14422 | 4109 ft | 268 kts | 308° |
| 2026-05-07 22:31 | 51.01314 | 0.11908 | 3931 ft | 268 kts | 293° |
| 2026-05-07 22:32 | 51.01822 | 0.09078 | 3833 ft | 267 kts | 277° |
| 2026-05-07 22:32 | 51.01963 | 0.06129 | 3784 ft | 268 kts | 273° |
| 2026-05-07 22:32 | 51.02087 | 0.03175 | 3736 ft | 268 kts | 274° |
| 2026-05-07 22:32 | 51.02212 | 0.00225 | 3689 ft | 268 kts | 274° |
| 2026-05-07 22:33 | 51.02341 | -0.02744 | 3681 ft | 269 kts | 273° |
| 2026-05-07 22:33 | 51.02470 | -0.05709 | 3621 ft | 269 kts | 273° |
| 2026-05-07 22:33 | 51.02597 | -0.08685 | 3561 ft | 269 kts | 273° |
| 2026-05-07 22:33 | 51.02722 | -0.11645 | 3499 ft | 266 kts | 273° |
| 2026-05-07 22:34 | 51.02842 | -0.14487 | 3433 ft | 250 kts | 273° |
| 2026-05-07 22:34 | 51.02955 | -0.17171 | 3376 ft | 237 kts | 273° |
| 2026-05-07 22:34 | 51.03064 | -0.19753 | 3322 ft | 233 kts | 273° |
| 2026-05-07 22:34 | 51.03169 | -0.22321 | 3268 ft | 233 kts | 272° |
| 2026-05-07 22:35 | 51.03272 | -0.24885 | 3215 ft | 233 kts | 272° |
| 2026-05-07 22:35 | 51.03568 | -0.27396 | 3070 ft | 231 kts | 294° |
| 2026-05-07 22:35 | 51.04400 | -0.29583 | 3008 ft | 232 kts | 304° |
| 2026-05-07 22:35 | 51.05295 | -0.31699 | 3009 ft | 226 kts | 304° |
| 2026-05-07 22:36 | 51.06151 | -0.33718 | 3004 ft | 215 kts | 304° |
| 2026-05-07 22:36 | 51.06955 | -0.35614 | 3025 ft | 202 kts | 304° |
| 2026-05-07 22:36 | 51.07719 | -0.37415 | 3019 ft | 196 kts | 304° |
| 2026-05-07 22:36 | 51.08640 | -0.39025 | 2998 ft | 194 kts | 330° |
| 2026-05-07 22:37 | 51.09897 | -0.39654 | 2830 ft | 193 kts | 1° |
| 2026-05-07 22:37 | 51.11163 | -0.39178 | 2581 ft | 184 kts | 33° |
| 2026-05-07 22:37 | 51.12066 | -0.37803 | 2410 ft | 179 kts | 62° |
| 2026-05-07 22:37 | 51.12462 | -0.35973 | 2201 ft | 170 kts | 80° |
| 2026-05-07 22:38 | 51.12709 | -0.34198 | 1984 ft | 158 kts | 80° |
| 2026-05-07 22:38 | 51.12939 | -0.32542 | 1781 ft | 150 kts | 80° |
| 2026-05-07 22:38 | 51.13162 | -0.30938 | 1577 ft | 147 kts | 80° |
| 2026-05-07 22:38 | 51.13382 | -0.29356 | 1376 ft | 146 kts | 80° |
| 2026-05-07 22:39 | 51.13594 | -0.27772 | 1150 ft | 146 kts | 79° |
| 2026-05-07 22:39 | 51.13805 | -0.26190 | 930 ft | 147 kts | 78° |
| 2026-05-07 22:39 | 51.14032 | -0.24606 | 725 ft | 147 kts | 77° |
| 2026-05-07 22:39 | 51.14253 | -0.23012 | 526 ft | 147 kts | 78° |
| 2026-05-07 22:40 | 51.14472 | -0.21429 | 326 ft | 146 kts | 77° |
| 2026-05-07 22:40 | 51.14697 | -0.19886 | 208 ft | 133 kts | 77° |
| 2026-05-07 22:40 | 51.14845 | -0.18819 | 211 ft | 56 kts | 78° |
| 2026-05-07 22:40 | 51.14937 | -0.18523 | 213 ft | 21 kts | 53° |
| 2026-05-07 22:41 | 51.15005 | -0.18384 | 214 ft | 16 kts | 51° |
| 2026-05-07 22:41 | 51.15080 | -0.18237 | 206 ft | 18 kts | 51° |
| 2026-05-07 22:41 | 51.15131 | -0.18058 | 212 ft | 18 kts | 78° |
| 2026-05-07 22:41 | 51.15159 | -0.17852 | 214 ft | 21 kts | 77° |
| 2026-05-07 22:42 | 51.15191 | -0.17623 | 215 ft | 21 kts | 77° |
| 2026-05-07 22:42 | 51.15219 | -0.17420 | 212 ft | 16 kts | 77° |
| 2026-05-07 22:42 | 51.15244 | -0.17242 | 206 ft | 17 kts | 77° |
| 2026-05-07 22:42 | 51.15273 | -0.17043 | 205 ft | 19 kts | 77° |
| 2026-05-07 22:43 | 51.15297 | -0.16864 | 204 ft | 9 kts | 78° |
| 2026-05-07 22:43 | 51.15332 | -0.16807 | 206 ft | 7 kts | 10° |
| 2026-05-07 22:43 | 51.15381 | -0.16762 | 210 ft | 8 kts | 59° |
| 2026-05-07 22:43 | 51.15423 | -0.16721 | 206 ft | 7 kts | 12° |
| 2026-05-07 22:44 | 51.15445 | -0.16673 | 206 ft | 6 kts | 73° |
| 2026-05-07 22:44 | 51.15469 | -0.16640 | 206 ft | 4 kts | 7° |
| 2026-05-07 22:44 | 51.15498 | -0.16647 | 204 ft | 4 kts | 348° |
| 2026-05-07 22:44 | 51.15520 | -0.16655 | 211 ft | 3 kts | 348° |
| 2026-05-07 22:45 | 51.15524 | -0.16657 | 211 ft | 0 kts | 347° |